GRZ537 Details

Departure: Deadhorse Airport (PASC)
Arrival: Ted Stevens Anchorage International Airport (PANC) at N/A
Route: CQR PUYVO KROTO4
Notes:


Current Weather Information
PASC 171653Z 29012KT 10SM OVC013 04/02 A3068 RMK AO2 SLP389 T00440022 $
PANC 171653Z 35018G27KT 10SM FEW200 16/03 A3017 RMK AO2 PK WND 35027/1653 SLP218 T01560033